sensor_id;sensor_type;location;lat;lon;timestamp;pressure;altitude;pressure_sealevel;temperature;humidity
47530;BME280;33272;51.922;7.730;2023-03-26T00:01:19;144589.94;;;8.43;100.00
47530;BME280;33272;51.922;7.730;2023-03-26T00:03:49;144581.09;;;8.39;100.00
47530;BME280;33272;51.922;7.730;2023-03-26T00:06:21;144557.00;;;8.29;100.00
47530;BME280;33272;51.922;7.730;2023-03-26T00:08:50;144551.94;;;8.27;100.00
47530;BME280;33272;51.922;7.730;2023-03-26T00:11:19;144535.50;;;8.21;100.00
47530;BME280;33272;51.922;7.730;2023-03-26T00:13:47;144550.69;;;8.27;100.00
47530;BME280;33272;51.922;7.730;2023-03-26T00:16:17;144543.09;;;8.24;100.00
47530;BME280;33272;51.922;7.730;2023-03-26T00:18:45;144548.13;;;8.26;100.00
47530;BME280;33272;51.922;7.730;2023-03-26T00:21:16;144538.00;;;8.22;100.00
47530;BME280;33272;51.922;7.730;2023-03-26T00:23:45;144538.00;;;8.22;100.00
47530;BME280;33272;51.922;7.730;2023-03-26T00:26:14;144544.34;;;8.24;100.00
47530;BME280;33272;51.922;7.730;2023-03-26T00:28:42;144554.44;;;8.28;100.00
47530;BME280;33272;51.922;7.730;2023-03-26T00:31:12;144560.78;;;8.31;100.00
47530;BME280;33272;51.922;7.730;2023-03-26T00:33:40;144573.44;;;8.36;100.00
47530;BME280;33272;51.922;7.730;2023-03-26T00:36:10;144564.59;;;8.32;100.00
47530;BME280;33272;51.922;7.730;2023-03-26T00:38:40;144570.88;;;8.35;100.00
47530;BME280;33272;51.922;7.730;2023-03-26T00:41:11;144558.28;;;8.30;100.00
47530;BME280;33272;51.922;7.730;2023-03-26T00:43:48;144569.63;;;8.34;100.00
47530;BME280;33272;51.922;7.730;2023-03-26T00:46:16;144565.88;;;8.33;100.00
47530;BME280;33272;51.922;7.730;2023-03-26T00:48:44;144569.63;;;8.34;100.00
47530;BME280;33272;51.922;7.730;2023-03-26T00:51:12;144545.59;;;8.25;100.00
47530;BME280;33272;51.922;7.730;2023-03-26T00:53:41;144557.00;;;8.29;100.00
47530;BME280;33272;51.922;7.730;2023-03-26T00:56:11;144573.44;;;8.36;100.00
47530;BME280;33272;51.922;7.730;2023-03-26T00:58:38;144563.28;;;8.32;100.00
47530;BME280;33272;51.922;7.730;2023-03-26T01:01:22;144562.03;;;8.31;100.00
47530;BME280;33272;51.922;7.730;2023-03-26T01:03:52;144581.09;;;8.39;100.00
47530;BME280;33272;51.922;7.730;2023-03-26T01:06:25;144589.94;;;8.43;100.00
47530;BME280;33272;51.922;7.730;2023-03-26T01:09:01;144581.09;;;8.39;100.00
47530;BME280;33272;51.922;7.730;2023-03-26T01:11:32;144598.78;;;8.46;100.00
47530;BME280;33272;51.922;7.730;2023-03-26T01:14:05;144581.09;;;8.39;100.00
47530;BME280;33272;51.922;7.730;2023-03-26T01:16:38;144602.56;;;8.48;100.00
47530;BME280;33272;51.922;7.730;2023-03-26T01:19:11;144596.28;;;8.45;100.00
47530;BME280;33272;51.922;7.730;2023-03-26T01:21:41;144586.13;;;8.41;100.00
47530;BME280;33272;51.922;7.730;2023-03-26T01:24:09;144591.19;;;8.43;100.00
47530;BME280;33272;51.922;7.730;2023-03-26T01:26:53;144574.72;;;8.36;100.00
47530;BME280;33272;51.922;7.730;2023-03-26T01:29:31;144578.53;;;8.38;100.00
47530;BME280;33272;51.922;7.730;2023-03-26T01:32:09;144567.13;;;8.33;100.00
47530;BME280;33272;51.922;7.730;2023-03-26T01:34:51;144577.22;;;8.38;100.00
47530;BME280;33272;51.922;7.730;2023-03-26T01:37:28;144563.28;;;8.32;100.00
47530;BME280;33272;51.922;7.730;2023-03-26T01:40:02;144562.03;;;8.31;100.00
47530;BME280;33272;51.922;7.730;2023-03-26T01:42:38;144543.09;;;8.24;100.00
47530;BME280;33272;51.922;7.730;2023-03-26T01:45:14;144557.00;;;8.29;100.00
47530;BME280;33272;51.922;7.730;2023-03-26T01:47:43;144555.72;;;8.29;100.00
47530;BME280;33272;51.922;7.730;2023-03-26T01:50:12;144583.59;;;8.40;100.00
47530;BME280;33272;51.922;7.730;2023-03-26T01:52:39;144575.97;;;8.37;100.00
47530;BME280;33272;51.922;7.730;2023-03-26T01:55:08;144596.28;;;8.45;100.00
47530;BME280;33272;51.922;7.730;2023-03-26T01:57:51;144598.78;;;8.46;100.00
47530;BME280;33272;51.922;7.730;2023-03-26T02:00:26;144596.28;;;8.45;100.00
47530;BME280;33272;51.922;7.730;2023-03-26T02:03:08;144593.72;;;8.44;100.00
47530;BME280;33272;51.922;7.730;2023-03-26T02:05:48;144612.72;;;8.52;100.00
47530;BME280;33272;51.922;7.730;2023-03-26T02:08:23;144611.47;;;8.51;100.00
47530;BME280;33272;51.922;7.730;2023-03-26T02:10:58;144630.41;;;8.59;100.00
47530;BME280;33272;51.922;7.730;2023-03-26T02:13:29;144603.88;;;8.48;100.00
47530;BME280;33272;51.922;7.730;2023-03-26T02:15:58;144616.50;;;8.53;100.00
47530;BME280;33272;51.922;7.730;2023-03-26T02:18:26;144631.69;;;8.59;100.00
47530;BME280;33272;51.922;7.730;2023-03-26T02:21:03;144617.75;;;8.54;100.00
47530;BME280;33272;51.922;7.730;2023-03-26T02:23:30;144634.19;;;8.61;100.00
47530;BME280;33272;51.922;7.730;2023-03-26T02:26:04;144632.94;;;8.60;100.00
47530;BME280;33272;51.922;7.730;2023-03-26T02:28:31;144639.28;;;8.63;100.00
47530;BME280;33272;51.922;7.730;2023-03-26T02:30:59;144629.16;;;8.58;100.00
47530;BME280;33272;51.922;7.730;2023-03-26T02:33:27;144630.41;;;8.59;100.00
47530;BME280;33272;51.922;7.730;2023-03-26T02:35:54;144638.00;;;8.62;100.00
47530;BME280;33272;51.922;7.730;2023-03-26T02:38:24;144645.59;;;8.65;100.00
47530;BME280;33272;51.922;7.730;2023-03-26T02:40:52;144646.88;;;8.66;100.00
47530;BME280;33272;51.922;7.730;2023-03-26T02:43:21;144663.31;;;8.72;100.00
47530;BME280;33272;51.922;7.730;2023-03-26T02:45:48;144664.56;;;8.73;100.00
47530;BME280;33272;51.922;7.730;2023-03-26T02:48:15;144667.13;;;8.74;100.00
47530;BME280;33272;51.922;7.730;2023-03-26T02:50:43;144668.38;;;8.74;100.00
47530;BME280;33272;51.922;7.730;2023-03-26T02:53:10;144670.91;;;8.75;100.00
47530;BME280;33272;51.922;7.730;2023-03-26T02:55:38;144683.56;;;8.80;100.00
47530;BME280;33272;51.922;7.730;2023-03-26T02:58:05;144686.09;;;8.81;100.00
47530;BME280;33272;51.922;7.730;2023-03-26T03:00:34;144683.56;;;8.80;100.00
47530;BME280;33272;51.922;7.730;2023-03-26T03:03:01;144673.47;;;8.76;100.00
47530;BME280;33272;51.922;7.730;2023-03-26T03:05:32;144675.97;;;8.77;100.00
47530;BME280;33272;51.922;7.730;2023-03-26T03:07:59;144683.56;;;8.80;100.00
47530;BME280;33272;51.922;7.730;2023-03-26T03:10:27;144687.34;;;8.82;100.00
47530;BME280;33272;51.922;7.730;2023-03-26T03:12:57;144684.84;;;8.81;100.00
47530;BME280;33272;51.922;7.730;2023-03-26T03:15:25;144688.59;;;8.82;100.00
47530;BME280;33272;51.922;7.730;2023-03-26T03:17:53;144702.53;;;8.88;100.00
47530;BME280;33272;51.922;7.730;2023-03-26T03:20:20;144698.78;;;8.87;100.00
47530;BME280;33272;51.922;7.730;2023-03-26T03:22:47;144686.09;;;8.81;100.00
47530;BME280;33272;51.922;7.730;2023-03-26T03:25:15;144696.19;;;8.86;100.00
47530;BME280;33272;51.922;7.730;2023-03-26T03:27:43;144687.34;;;8.82;100.00
47530;BME280;33272;51.922;7.730;2023-03-26T03:30:12;144675.97;;;8.77;100.00
47530;BME280;33272;51.922;7.730;2023-03-26T03:32:40;144684.84;;;8.81;100.00
47530;BME280;33272;51.922;7.730;2023-03-26T03:35:08;144692.44;;;8.84;100.00
47530;BME280;33272;51.922;7.730;2023-03-26T03:37:36;144702.53;;;8.88;100.00
47530;BME280;33272;51.922;7.730;2023-03-26T03:40:04;144710.13;;;8.91;100.00
47530;BME280;33272;51.922;7.730;2023-03-26T03:42:32;144708.88;;;8.91;100.00
47530;BME280;33272;51.922;7.730;2023-03-26T03:44:59;144719.00;;;8.95;100.00
47530;BME280;33272;51.922;7.730;2023-03-26T03:47:26;144708.88;;;8.91;100.00
47530;BME280;33272;51.922;7.730;2023-03-26T03:49:53;144716.47;;;8.94;100.00
47530;BME280;33272;51.922;7.730;2023-03-26T03:52:22;144716.47;;;8.94;100.00
47530;BME280;33272;51.922;7.730;2023-03-26T03:54:50;144730.41;;;8.99;100.00
47530;BME280;33272;51.922;7.730;2023-03-26T03:57:17;144724.06;;;8.97;100.00
47530;BME280;33272;51.922;7.730;2023-03-26T03:59:46;144722.81;;;8.96;100.00
47530;BME280;33272;51.922;7.730;2023-03-26T04:02:14;144730.41;;;8.99;100.00
47530;BME280;33272;51.922;7.730;2023-03-26T04:04:45;144734.19;;;9.01;100.00
47530;BME280;33272;51.922;7.730;2023-03-26T04:07:14;144735.44;;;9.01;100.00
47530;BME280;33272;51.922;7.730;2023-03-26T04:09:43;144743.03;;;9.04;100.00
47530;BME280;33272;51.922;7.730;2023-03-26T04:12:10;144740.50;;;9.03;100.00
47530;BME280;33272;51.922;7.730;2023-03-26T04:14:37;144719.00;;;8.95;100.00
47530;BME280;33272;51.922;7.730;2023-03-26T04:17:04;144721.56;;;8.96;100.00
47530;BME280;33272;51.922;7.730;2023-03-26T04:19:31;144711.41;;;8.92;100.00
47530;BME280;33272;51.922;7.730;2023-03-26T04:21:58;144716.47;;;8.94;100.00
47530;BME280;33272;51.922;7.730;2023-03-26T04:24:27;144716.47;;;8.94;100.00
47530;BME280;33272;51.922;7.730;2023-03-26T04:26:56;144710.13;;;8.91;100.00
47530;BME280;33272;51.922;7.730;2023-03-26T04:29:25;144689.91;;;8.83;100.00
47530;BME280;33272;51.922;7.730;2023-03-26T04:31:55;144683.56;;;8.80;100.00
47530;BME280;33272;51.922;7.730;2023-03-26T04:34:31;144665.88;;;8.73;100.00
47530;BME280;33272;51.922;7.730;2023-03-26T04:37:00;144645.59;;;8.65;100.00
47530;BME280;33272;51.922;7.730;2023-03-26T04:39:28;144638.00;;;8.62;100.00
47530;BME280;33272;51.922;7.730;2023-03-26T04:41:56;144630.41;;;8.59;100.00
47530;BME280;33272;51.922;7.730;2023-03-26T04:44:24;144630.41;;;8.59;100.00
47530;BME280;33272;51.922;7.730;2023-03-26T04:46:50;144621.56;;;8.55;100.00
47530;BME280;33272;51.922;7.730;2023-03-26T04:49:20;144619.06;;;8.54;100.00
47530;BME280;33272;51.922;7.730;2023-03-26T04:51:47;144622.81;;;8.56;100.00
47530;BME280;33272;51.922;7.730;2023-03-26T04:54:15;144625.34;;;8.57;100.00
47530;BME280;33272;51.922;7.730;2023-03-26T04:56:49;144631.69;;;8.59;100.00
47530;BME280;33272;51.922;7.730;2023-03-26T04:59:23;144627.91;;;8.58;100.00
47530;BME280;33272;51.922;7.730;2023-03-26T05:01:55;144612.72;;;8.52;100.00
47530;BME280;33272;51.922;7.730;2023-03-26T05:04:24;144607.63;;;8.50;100.00
47530;BME280;33272;51.922;7.730;2023-03-26T05:06:54;144627.91;;;8.58;100.00
47530;BME280;33272;51.922;7.730;2023-03-26T05:09:22;144630.41;;;8.59;100.00
47530;BME280;33272;51.922;7.730;2023-03-26T05:11:50;144641.78;;;8.64;100.00
47530;BME280;33272;51.922;7.730;2023-03-26T05:14:19;144643.09;;;8.64;100.00
47530;BME280;33272;51.922;7.730;2023-03-26T05:16:47;144635.50;;;8.61;100.00
47530;BME280;33272;51.922;7.730;2023-03-26T05:19:18;144643.09;;;8.64;100.00
47530;BME280;33272;51.922;7.730;2023-03-26T05:21:45;144643.09;;;8.64;100.00
47530;BME280;33272;51.922;7.730;2023-03-26T05:24:12;144641.78;;;8.64;100.00
47530;BME280;33272;51.922;7.730;2023-03-26T05:26:39;144645.59;;;8.65;100.00
47530;BME280;33272;51.922;7.730;2023-03-26T05:29:06;144655.72;;;8.69;100.00
47530;BME280;33272;51.922;7.730;2023-03-26T05:31:34;144672.16;;;8.76;100.00
47530;BME280;33272;51.922;7.730;2023-03-26T05:34:02;144675.97;;;8.77;100.00
47530;BME280;33272;51.922;7.730;2023-03-26T05:36:29;144673.47;;;8.76;100.00
47530;BME280;33272;51.922;7.730;2023-03-26T05:38:56;144686.09;;;8.81;100.00
47530;BME280;33272;51.922;7.730;2023-03-26T05:41:23;144689.91;;;8.83;100.00
47530;BME280;33272;51.922;7.730;2023-03-26T05:43:51;144700.03;;;8.87;100.00
47530;BME280;33272;51.922;7.730;2023-03-26T05:46:18;144711.41;;;8.92;100.00
47530;BME280;33272;51.922;7.730;2023-03-26T05:48:49;144726.59;;;8.98;100.00
47530;BME280;33272;51.922;7.730;2023-03-26T05:51:16;144734.19;;;9.01;100.00
47530;BME280;33272;51.922;7.730;2023-03-26T05:53:43;144738.00;;;9.02;100.00
47530;BME280;33272;51.922;7.730;2023-03-26T05:56:11;144748.13;;;9.07;100.00
47530;BME280;33272;51.922;7.730;2023-03-26T05:58:38;144762.06;;;9.12;100.00
47530;BME280;33272;51.922;7.730;2023-03-26T06:01:09;144773.41;;;9.17;100.00
47530;BME280;33272;51.922;7.730;2023-03-26T06:03:41;144786.09;;;9.22;100.00
47530;BME280;33272;51.922;7.730;2023-03-26T06:06:13;144800.03;;;9.27;100.00
47530;BME280;33272;51.922;7.730;2023-03-26T06:08:41;144816.47;;;9.34;100.00
47530;BME280;33272;51.922;7.730;2023-03-26T06:11:09;144831.69;;;9.40;100.00
47530;BME280;33272;51.922;7.730;2023-03-26T06:13:37;144843.06;;;9.45;100.00
47530;BME280;33272;51.922;7.730;2023-03-26T06:16:05;144858.25;;;9.51;100.00
47530;BME280;33272;51.922;7.730;2023-03-26T06:18:32;144869.69;;;9.56;100.00
47530;BME280;33272;51.922;7.730;2023-03-26T06:20:59;144889.91;;;9.64;100.00
47530;BME280;33272;51.922;7.730;2023-03-26T06:23:27;144902.59;;;9.69;100.00
47530;BME280;33272;51.922;7.730;2023-03-26T06:25:55;144901.34;;;9.68;100.00
47530;BME280;33272;51.922;7.730;2023-03-26T06:28:22;144898.78;;;9.67;100.00
47530;BME280;33272;51.922;7.730;2023-03-26T06:30:49;144897.50;;;9.67;100.00
47530;BME280;33272;51.922;7.730;2023-03-26T06:33:16;144907.69;;;9.71;100.00
47530;BME280;33272;51.922;7.730;2023-03-26T06:35:44;144919.06;;;9.75;100.00
47530;BME280;33272;51.922;7.730;2023-03-26T06:38:12;144936.78;;;9.83;100.00
47530;BME280;33272;51.922;7.730;2023-03-26T06:40:40;144957.06;;;9.91;100.00
47530;BME280;33272;51.922;7.730;2023-03-26T06:43:07;144972.25;;;9.97;100.00
47530;BME280;33272;51.922;7.730;2023-03-26T06:45:35;144977.28;;;9.99;100.00
47530;BME280;33272;51.922;7.730;2023-03-26T06:48:02;144978.59;;;10.00;100.00
47530;BME280;33272;51.922;7.730;2023-03-26T06:50:32;144988.72;;;10.04;100.00
47530;BME280;33272;51.922;7.730;2023-03-26T06:52:59;145007.72;;;10.11;100.00
47530;BME280;33272;51.922;7.730;2023-03-26T06:55:27;145001.41;;;10.09;100.00
47530;BME280;33272;51.922;7.730;2023-03-26T06:57:57;144988.72;;;10.04;100.00
47530;BME280;33272;51.922;7.730;2023-03-26T07:00:24;144993.81;;;10.06;100.00
47530;BME280;33272;51.922;7.730;2023-03-26T07:02:51;144995.06;;;10.06;100.00
47530;BME280;33272;51.922;7.730;2023-03-26T07:05:18;145008.97;;;10.12;100.00
47530;BME280;33272;51.922;7.730;2023-03-26T07:07:46;145026.75;;;10.19;100.00
47530;BME280;33272;51.922;7.730;2023-03-26T07:10:13;145055.91;;;10.31;100.00
47530;BME280;33272;51.922;7.730;2023-03-26T07:12:41;145077.44;;;10.39;100.00
47530;BME280;33272;51.922;7.730;2023-03-26T07:15:10;145099.00;;;10.48;100.00
47530;BME280;33272;51.922;7.730;2023-03-26T07:17:37;145116.72;;;10.55;100.00
47530;BME280;33272;51.922;7.730;2023-03-26T07:20:07;145142.06;;;10.65;100.00
47530;BME280;33272;51.922;7.730;2023-03-26T07:22:35;145149.69;;;10.68;100.00
47530;BME280;33272;51.922;7.730;2023-03-26T07:25:04;145140.81;;;10.65;100.00
47530;BME280;33272;51.922;7.730;2023-03-26T07:27:39;145154.75;;;10.71;100.00
47530;BME280;33272;51.922;7.730;2023-03-26T07:30:15;145169.97;;;10.77;100.00
47530;BME280;33272;51.922;7.730;2023-03-26T07:32:52;145152.25;;;10.70;100.00
47530;BME280;33272;51.922;7.730;2023-03-26T07:35:25;145156.03;;;10.71;100.00
47530;BME280;33272;51.922;7.730;2023-03-26T07:38:08;145171.25;;;10.77;100.00
47530;BME280;33272;51.922;7.730;2023-03-26T07:40:48;145194.06;;;10.86;100.00
47530;BME280;33272;51.922;7.730;2023-03-26T07:43:32;145221.97;;;10.98;100.00
47530;BME280;33272;51.922;7.730;2023-03-26T07:46:11;145267.63;;;11.16;100.00
47530;BME280;33272;51.922;7.730;2023-03-26T07:48:40;145308.19;;;11.32;100.00
47530;BME280;33272;51.922;7.730;2023-03-26T07:51:10;145343.69;;;11.47;100.00
47530;BME280;33272;51.922;7.730;2023-03-26T07:53:38;145384.25;;;11.63;100.00
47530;BME280;33272;51.922;7.730;2023-03-26T07:56:10;145424.91;;;11.79;100.00
47530;BME280;33272;51.922;7.730;2023-03-26T07:58:58;145443.97;;;11.87;100.00
47530;BME280;33272;51.922;7.730;2023-03-26T08:01:45;145463.03;;;11.95;100.00
47530;BME280;33272;51.922;7.730;2023-03-26T08:04:54;145478.19;;;12.01;100.00
47530;BME280;33272;51.922;7.730;2023-03-26T08:07:35;145468.06;;;11.97;100.00
47530;BME280;33272;51.922;7.730;2023-03-26T08:10:11;145463.03;;;11.95;100.00
47530;BME280;33272;51.922;7.730;2023-03-26T08:12:51;145483.28;;;12.03;100.00
47530;BME280;33272;51.922;7.730;2023-03-26T08:15:27;145503.63;;;12.11;100.00
47530;BME280;33272;51.922;7.730;2023-03-26T08:18:03;145503.63;;;12.11;100.00
47530;BME280;33272;51.922;7.730;2023-03-26T08:20:42;145515.00;;;12.16;100.00
47530;BME280;33272;51.922;7.730;2023-03-26T08:23:19;145521.38;;;12.18;100.00
47530;BME280;33272;51.922;7.730;2023-03-26T08:25:58;145521.38;;;12.18;100.00
47530;BME280;33272;51.922;7.730;2023-03-26T08:28:41;145523.91;;;12.19;100.00
47530;BME280;33272;51.922;7.730;2023-03-26T08:31:14;145520.09;;;12.18;100.00
47530;BME280;33272;51.922;7.730;2023-03-26T08:33:45;145520.09;;;12.18;100.00
47530;BME280;33272;51.922;7.730;2023-03-26T08:36:12;145521.38;;;12.18;100.00
47530;BME280;33272;51.922;7.730;2023-03-26T08:38:39;145513.75;;;12.15;100.00
47530;BME280;33272;51.922;7.730;2023-03-26T08:45:08;145469.31;;;11.97;100.00
47530;BME280;33272;51.922;7.730;2023-03-26T08:48:05;145463.03;;;11.95;100.00
47530;BME280;33272;51.922;7.730;2023-03-26T08:51:03;145461.72;;;11.94;100.00
47530;BME280;33272;51.922;7.730;2023-03-26T08:54:28;145450.31;;;11.90;100.00
47530;BME280;33272;51.922;7.730;2023-03-26T08:57:33;145450.31;;;11.90;100.00
47530;BME280;33272;51.922;7.730;2023-03-26T09:00:36;145440.19;;;11.86;100.00
47530;BME280;33272;51.922;7.730;2023-03-26T09:06:46;145470.59;;;11.98;100.00
47530;BME280;33272;51.922;7.730;2023-03-26T09:10:01;145475.69;;;12.00;100.00
47530;BME280;33272;51.922;7.730;2023-03-26T09:13:24;145494.75;;;12.08;100.00
47530;BME280;33272;51.922;7.730;2023-03-26T09:16:31;145515.00;;;12.16;100.00
47530;BME280;33272;51.922;7.730;2023-03-26T09:35:20;145628.00;;;12.61;100.00
47530;BME280;33272;51.922;7.730;2023-03-26T09:37:58;145647.03;;;12.69;100.00
47530;BME280;33272;51.922;7.730;2023-03-26T09:40:35;145669.91;;;12.78;100.00
47530;BME280;33272;51.922;7.730;2023-03-26T09:46:27;145692.75;;;12.87;100.00
47530;BME280;33272;51.922;7.730;2023-03-26T09:49:33;145680.03;;;12.82;100.00
47530;BME280;33272;51.922;7.730;2023-03-26T09:52:42;145673.69;;;12.80;100.00
47530;BME280;33272;51.922;7.730;2023-03-26T09:55:48;145678.78;;;12.82;100.00
47530;BME280;33272;51.922;7.730;2023-03-26T09:59:07;145676.25;;;12.81;100.00
47530;BME280;33272;51.922;7.730;2023-03-26T10:01:43;145687.66;;;12.85;100.00
47530;BME280;33272;51.922;7.730;2023-03-26T10:04:58;145683.88;;;12.84;100.00
47530;BME280;33272;51.922;7.730;2023-03-26T10:07:57;145686.41;;;12.85;100.00
47530;BME280;33272;51.922;7.730;2023-03-26T10:10:34;145687.66;;;12.85;100.00
47530;BME280;33272;51.922;7.730;2023-03-26T10:13:16;145690.22;;;12.86;100.00
47530;BME280;33272;51.922;7.730;2023-03-26T10:16:10;145691.50;;;12.87;100.00
47530;BME280;33272;51.922;7.730;2023-03-26T10:18:48;145701.63;;;12.91;100.00
47530;BME280;33272;51.922;7.730;2023-03-26T10:21:28;145683.88;;;12.84;100.00
47530;BME280;33272;51.922;7.730;2023-03-26T10:24:23;145666.06;;;12.76;100.00
47530;BME280;33272;51.922;7.730;2023-03-26T10:27:24;145671.16;;;12.79;100.00
47530;BME280;33272;51.922;7.730;2023-03-26T10:30:45;145691.50;;;12.87;100.00
47530;BME280;33272;51.922;7.730;2023-03-26T10:33:29;145729.59;;;13.02;100.00
47530;BME280;33272;51.922;7.730;2023-03-26T10:36:19;145735.91;;;13.05;100.00
47530;BME280;33272;51.922;7.730;2023-03-26T10:39:07;145694.03;;;12.88;100.00
47530;BME280;33272;51.922;7.730;2023-03-26T10:41:49;145667.38;;;12.77;100.00
47530;BME280;33272;51.922;7.730;2023-03-26T10:44:40;145638.16;;;12.65;100.00
47530;BME280;33272;51.922;7.730;2023-03-26T10:47:28;145612.78;;;12.55;100.00
47530;BME280;33272;51.922;7.730;2023-03-26T10:50:26;145598.81;;;12.49;100.00
47530;BME280;33272;51.922;7.730;2023-03-26T10:53:00;145611.47;;;12.55;100.00
47530;BME280;33272;51.922;7.730;2023-03-26T10:55:35;145635.63;;;12.64;100.00
47530;BME280;33272;51.922;7.730;2023-03-26T10:58:10;145667.38;;;12.77;100.00
47530;BME280;33272;51.922;7.730;2023-03-26T11:00:43;145690.22;;;12.86;100.00
47530;BME280;33272;51.922;7.730;2023-03-26T11:03:49;145690.22;;;12.86;100.00
47530;BME280;33272;51.922;7.730;2023-03-26T11:06:29;145711.78;;;12.95;100.00
47530;BME280;33272;51.922;7.730;2023-03-26T11:09:08;145724.50;;;13.00;100.00
47530;BME280;33272;51.922;7.730;2023-03-26T11:11:44;145720.66;;;12.98;100.00
47530;BME280;33272;51.922;7.730;2023-03-26T11:14:20;145716.88;;;12.97;100.00
47530;BME280;33272;51.922;7.730;2023-03-26T11:16:59;145711.78;;;12.95;100.00
47530;BME280;33272;51.922;7.730;2023-03-26T11:19:37;145718.13;;;12.97;100.00
47530;BME280;33272;51.922;7.730;2023-03-26T11:22:19;145732.13;;;13.03;100.00
47530;BME280;33272;51.922;7.730;2023-03-26T11:25:25;145744.84;;;13.08;100.00
47530;BME280;33272;51.922;7.730;2023-03-26T11:28:07;145766.41;;;13.17;100.00
47530;BME280;33272;51.922;7.730;2023-03-26T11:30:45;145771.50;;;13.19;100.00
47530;BME280;33272;51.922;7.730;2023-03-26T11:33:19;145788.03;;;13.26;100.00
47530;BME280;33272;51.922;7.730;2023-03-26T11:35:51;145799.47;;;13.30;100.00
47530;BME280;33272;51.922;7.730;2023-03-26T11:38:25;145818.53;;;13.38;100.00
47530;BME280;33272;51.922;7.730;2023-03-26T11:40:55;145828.69;;;13.42;100.00
47530;BME280;33272;51.922;7.730;2023-03-26T11:43:28;145849.03;;;13.50;100.00
47530;BME280;33272;51.922;7.730;2023-03-26T11:45:58;145842.69;;;13.48;100.00
47530;BME280;33272;51.922;7.730;2023-03-26T11:48:32;145826.16;;;13.41;100.00
47530;BME280;33272;51.922;7.730;2023-03-26T11:51:06;145810.91;;;13.35;100.00
47530;BME280;33272;51.922;7.730;2023-03-26T11:53:36;145813.44;;;13.36;100.00
47530;BME280;33272;51.922;7.730;2023-03-26T11:56:10;145816.03;;;13.37;100.00
47530;BME280;33272;51.922;7.730;2023-03-26T11:58:44;145817.28;;;13.37;100.00
47530;BME280;33272;51.922;7.730;2023-03-26T12:01:15;145810.91;;;13.35;100.00
47530;BME280;33272;51.922;7.730;2023-03-26T12:03:56;145798.19;;;13.30;100.00
47530;BME280;33272;51.922;7.730;2023-03-26T12:06:28;145774.03;;;13.20;100.00
47530;BME280;33272;51.922;7.730;2023-03-26T12:08:57;145739.75;;;13.06;100.00
47530;BME280;33272;51.922;7.730;2023-03-26T12:11:27;145708.00;;;12.93;100.00
47530;BME280;33272;51.922;7.730;2023-03-26T12:14:00;145678.78;;;12.82;100.00
47530;BME280;33272;51.922;7.730;2023-03-26T12:16:27;145654.66;;;12.72;100.00
47530;BME280;33272;51.922;7.730;2023-03-26T12:19:00;145625.44;;;12.60;100.00
47530;BME280;33272;51.922;7.730;2023-03-26T12:21:43;145548.00;;;12.29;100.00
47530;BME280;33272;51.922;7.730;2023-03-26T12:24:27;145525.16;;;12.20;100.00
47530;BME280;33272;51.922;7.730;2023-03-26T12:26:59;145516.28;;;12.16;100.00
47530;BME280;33272;51.922;7.730;2023-03-26T12:29:29;145511.22;;;12.14;100.00
47530;BME280;33272;51.922;7.730;2023-03-26T12:32:05;145506.13;;;12.12;100.00
47530;BME280;33272;51.922;7.730;2023-03-26T12:34:35;145504.88;;;12.12;100.00
47530;BME280;33272;51.922;7.730;2023-03-26T12:37:14;145492.16;;;12.06;100.00
47530;BME280;33272;51.922;7.730;2023-03-26T12:40:07;145473.16;;;11.99;100.00
47530;BME280;33272;51.922;7.730;2023-03-26T12:42:39;145474.41;;;11.99;100.00
47530;BME280;33272;51.922;7.730;2023-03-26T12:45:12;145464.28;;;11.95;100.00
47530;BME280;33272;51.922;7.730;2023-03-26T12:47:39;145443.97;;;11.87;100.00
47530;BME280;33272;51.922;7.730;2023-03-26T12:50:12;145418.56;;;11.77;100.00
47530;BME280;33272;51.922;7.730;2023-03-26T12:53:04;145390.63;;;11.66;100.00
47530;BME280;33272;51.922;7.730;2023-03-26T12:55:41;145372.88;;;11.58;100.00
47530;BME280;33272;51.922;7.730;2023-03-26T12:58:43;145337.34;;;11.44;100.00
47530;BME280;33272;51.922;7.730;2023-03-26T13:01:27;145314.56;;;11.35;100.00
47530;BME280;33272;51.922;7.730;2023-03-26T13:04:42;145277.75;;;11.20;100.00
47530;BME280;33272;51.922;7.730;2023-03-26T13:07:24;145267.63;;;11.16;100.00
47530;BME280;33272;51.922;7.730;2023-03-26T13:10:35;145242.22;;;11.06;100.00
47530;BME280;33272;51.922;7.730;2023-03-26T13:16:12;145181.41;;;10.81;100.00
47530;BME280;33272;51.922;7.730;2023-03-26T13:18:46;145143.38;;;10.66;100.00
47530;BME280;33272;51.922;7.730;2023-03-26T13:21:25;145090.13;;;10.44;100.00
47530;BME280;33272;51.922;7.730;2023-03-26T13:23:58;145028.00;;;10.19;100.00
47530;BME280;33272;51.922;7.730;2023-03-26T13:26:45;144986.22;;;10.03;100.00
47530;BME280;33272;51.922;7.730;2023-03-26T13:29:23;144955.78;;;9.90;100.00
47530;BME280;33272;51.922;7.730;2023-03-26T13:32:00;144939.34;;;9.84;100.00
47530;BME280;33272;51.922;7.730;2023-03-26T13:34:48;144925.41;;;9.78;100.00
47530;BME280;33272;51.922;7.730;2023-03-26T13:37:23;144907.69;;;9.71;100.00
47530;BME280;33272;51.922;7.730;2023-03-26T13:40:01;144889.91;;;9.64;100.00
47530;BME280;33272;51.922;7.730;2023-03-26T13:42:43;144884.88;;;9.62;100.00
47530;BME280;33272;51.922;7.730;2023-03-26T13:45:32;144879.78;;;9.60;100.00
47530;BME280;33272;51.922;7.730;2023-03-26T13:48:10;144905.13;;;9.70;100.00
47530;BME280;33272;51.922;7.730;2023-03-26T13:50:42;144925.41;;;9.78;100.00
47530;BME280;33272;51.922;7.730;2023-03-26T13:53:16;144950.72;;;9.88;100.00
47530;BME280;33272;51.922;7.730;2023-03-26T13:55:48;144978.59;;;10.00;100.00